createdAt,value
2023-05-04T00:01:47.863Z,99927.03
2023-05-04T00:06:52.079Z,99922.53
2023-05-04T00:11:54.985Z,99922.97
2023-05-04T00:16:58.256Z,99922.28
2023-05-04T00:22:02.976Z,99905.88
2023-05-04T00:27:05.906Z,99911.09
2023-05-04T00:32:08.919Z,99906.13
2023-05-04T00:37:13.791Z,99899.31
2023-05-04T00:42:18.785Z,99894.84
2023-05-04T00:47:22.156Z,99893.09
2023-05-04T00:52:26.648Z,99896.88
2023-05-04T00:57:31.212Z,99890.41
2023-05-04T01:02:34.186Z,99883.09
2023-05-04T01:07:48.903Z,99894.28
2023-05-04T01:12:57.270Z,99894.25
2023-05-04T01:18:00.243Z,99890.22
2023-05-04T01:23:05.004Z,99879.31
2023-05-04T01:28:11.339Z,99874.06
2023-05-04T01:33:15.066Z,99875.03
2023-05-04T01:38:19.663Z,99874.88
2023-05-04T01:43:22.547Z,99879.19
2023-05-04T01:48:26.079Z,99885.38
2023-05-04T01:53:31.683Z,99884.06
2023-05-04T01:58:34.654Z,99888.69
2023-05-04T02:03:37.665Z,99883.66
2023-05-04T02:08:42.791Z,99886.19
2023-05-04T02:13:46.127Z,99875.63
2023-05-04T02:18:49.026Z,99880.34
2023-05-04T02:23:53.302Z,99878.69
2023-05-04T02:28:56.574Z,99883.53
2023-05-04T02:33:59.576Z,99873.75
2023-05-04T02:39:03.906Z,99884.47
2023-05-04T02:44:06.802Z,99869.50
2023-05-04T02:49:09.672Z,99880.09
2023-05-04T02:54:13.996Z,99882.69
2023-05-04T02:59:16.982Z,99891.75
2023-05-04T03:04:20.148Z,99884.41
2023-05-04T03:09:24.489Z,99881.56
2023-05-04T03:14:27.409Z,99876.84
2023-05-04T03:19:30.690Z,99884.09
2023-05-04T03:24:37.014Z,99878.25
2023-05-04T03:29:40.469Z,99877.53
2023-05-04T03:34:45.626Z,99882.78
2023-05-04T03:39:50.704Z,99871.78
2023-05-04T03:44:53.696Z,99874.63
2023-05-04T03:49:56.611Z,99874.38
2023-05-04T03:55:00.979Z,99876.56
2023-05-04T04:00:05.884Z,99876.38
2023-05-04T04:05:28.902Z,99876.31
2023-05-04T04:10:33.730Z,99878.91
2023-05-04T04:15:36.702Z,99869.56
2023-05-04T04:20:39.663Z,99866.41
2023-05-04T04:25:44.609Z,99868.00
2023-05-04T04:30:48.199Z,99869.69
2023-05-04T04:35:51.103Z,99874.47
2023-05-04T04:40:55.368Z,99863.69
2023-05-04T04:45:58.674Z,99864.84
2023-05-04T04:51:01.612Z,99871.53
2023-05-04T04:56:07.327Z,99875.63
2023-05-04T05:01:10.320Z,99886.75
2023-05-04T05:06:14.564Z,99873.69
2023-05-04T05:11:18.828Z,99881.00
2023-05-04T05:16:21.847Z,99875.50
2023-05-04T05:21:24.781Z,99871.84
2023-05-04T05:26:29.438Z,99870.94
2023-05-04T05:31:32.957Z,99871.19
2023-05-04T05:36:36.794Z,99862.09
2023-05-04T05:41:41.998Z,99863.75
2023-05-04T05:46:44.980Z,99869.25
2023-05-04T05:51:47.997Z,99873.88
2023-05-04T05:56:52.243Z,99861.09
2023-05-04T06:01:55.217Z,99866.13
2023-05-04T06:06:58.122Z,99864.03
2023-05-04T06:12:02.782Z,99856.97
2023-05-04T06:17:05.652Z,99852.06
2023-05-04T06:22:08.627Z,99856.34
2023-05-04T06:27:13.309Z,99838.88
2023-05-04T06:32:16.456Z,99836.38
2023-05-04T06:37:19.720Z,99851.25
2023-05-04T06:42:24.086Z,99841.88
2023-05-04T06:47:28.516Z,99840.38
2023-05-04T06:52:31.390Z,99843.13
2023-05-04T06:57:35.793Z,99839.06
2023-05-04T07:02:38.741Z,99839.19
2023-05-04T07:07:41.667Z,99833.84
2023-05-04T07:12:46.047Z,99827.34
2023-05-04T07:17:49.905Z,99826.75
2023-05-04T07:22:56.462Z,99823.06
2023-05-04T07:28:01.039Z,99813.91
2023-05-04T07:33:04.074Z,99806.03
2023-05-04T07:38:08.410Z,99806.50
2023-05-04T07:43:12.651Z,99801.75
2023-05-04T07:48:17.993Z,99799.34
2023-05-04T07:53:21.930Z,99796.56
2023-05-04T07:58:26.184Z,99792.00
2023-05-04T08:03:30.578Z,99792.84
2023-05-04T08:08:33.407Z,99804.00
2023-05-04T08:13:37.661Z,99796.59
2023-05-04T08:18:40.573Z,99788.81
2023-05-04T08:23:43.661Z,99784.75
2023-05-04T08:28:48.421Z,99776.25
2023-05-04T08:33:51.430Z,99773.03
2023-05-04T08:38:54.589Z,99760.91
2023-05-04T08:43:59.791Z,99757.44
2023-05-04T08:49:02.757Z,99756.72
2023-05-04T08:54:10.296Z,99758.56
2023-05-04T08:59:21.122Z,99767.75
2023-05-04T09:04:25.517Z,99764.94
2023-05-04T09:09:31.419Z,99773.69
2023-05-04T09:14:36.924Z,99766.41
2023-05-04T09:19:43.804Z,99763.09
2023-05-04T09:24:46.914Z,99752.66
2023-05-04T09:29:58.024Z,99763.47
2023-05-04T09:35:01.378Z,99753.94
2023-05-04T09:40:04.501Z,99754.25
2023-05-04T09:45:11.007Z,99758.47
2023-05-04T09:50:20.752Z,99752.88
2023-05-04T09:55:26.371Z,99740.50
2023-05-04T10:00:30.824Z,99741.59
2023-05-04T10:05:34.123Z,99741.63
2023-05-04T10:10:39.712Z,99726.16
2023-05-04T10:15:55.906Z,99727.25
2023-05-04T10:21:17.937Z,99719.75
2023-05-04T10:26:53.550Z,99710.44
2023-05-04T10:31:58.730Z,99712.81
2023-05-04T10:37:03.121Z,99701.69
2023-05-04T10:42:07.985Z,99692.25
2023-05-04T10:47:14.905Z,99684.13
2023-05-04T10:52:18.240Z,99687.06
2023-05-04T10:57:21.551Z,99672.00
2023-05-04T11:02:26.571Z,99673.78
2023-05-04T11:07:37.776Z,99657.03
2023-05-04T11:12:41.030Z,99657.91
2023-05-04T11:17:49.553Z,99647.34
2023-05-04T11:22:53.096Z,99646.81
2023-05-04T11:27:56.070Z,99638.31
2023-05-04T11:33:00.977Z,99619.88
2023-05-04T11:38:04.133Z,99630.31
2023-05-04T11:43:11.675Z,99621.78
2023-05-04T11:48:19.024Z,99620.47
2023-05-04T11:53:23.236Z,99608.47
2023-05-04T11:58:26.836Z,99597.44
2023-05-04T12:03:48.568Z,99595.94
2023-05-04T12:09:03.070Z,99606.31
2023-05-04T12:14:07.419Z,99590.66
2023-05-04T12:19:13.217Z,99595.16
2023-05-04T12:24:16.388Z,99587.88
2023-05-04T12:29:19.290Z,99591.34
2023-05-04T12:34:23.539Z,99582.53
2023-05-04T12:39:28.026Z,99560.00
2023-05-04T12:44:31.732Z,99572.22
2023-05-04T12:49:36.028Z,99565.06
2023-05-04T12:54:38.967Z,99565.28
2023-05-04T12:59:42.223Z,99550.06
2023-05-04T13:04:47.726Z,99551.16
2023-05-04T13:09:51.021Z,99538.06
2023-05-04T13:14:56.766Z,99541.09
2023-05-04T13:20:01.627Z,99530.38
2023-05-04T13:25:05.429Z,99528.44
2023-05-04T13:30:10.852Z,99527.69
2023-05-04T13:35:15.445Z,99528.44
2023-05-04T13:40:18.612Z,99518.06
2023-05-04T13:45:22.698Z,99516.88
2023-05-04T13:50:26.946Z,99507.09
2023-05-04T13:55:30.115Z,99503.84
2023-05-04T14:00:33.578Z,99496.28
2023-05-04T14:05:37.869Z,99481.91
2023-05-04T14:10:40.859Z,99478.19
2023-05-04T14:15:43.801Z,99466.69
2023-05-04T14:20:49.583Z,99462.44
2023-05-04T14:25:52.886Z,99463.50
2023-05-04T14:30:55.929Z,99452.13
2023-05-04T14:36:00.182Z,99449.84
2023-05-04T14:41:04.701Z,99449.09
2023-05-04T14:46:09.280Z,99440.22
2023-05-04T14:51:13.892Z,99437.72
2023-05-04T14:56:16.766Z,99428.28
2023-05-04T15:01:19.759Z,99428.22
2023-05-04T15:06:24.071Z,99420.84
2023-05-04T15:11:26.965Z,99426.78
2023-05-04T15:16:32.379Z,99428.34
2023-05-04T15:21:36.798Z,99414.13
2023-05-04T15:26:40.002Z,99405.06
2023-05-04T15:31:42.961Z,99412.16
2023-05-04T15:36:47.800Z,99401.19
2023-05-04T15:41:50.711Z,99395.81
2023-05-04T15:46:53.704Z,99389.19
2023-05-04T15:51:57.948Z,99388.63
2023-05-04T15:57:02.071Z,99367.81
2023-05-04T16:02:06.056Z,99382.00
2023-05-04T16:07:11.099Z,99368.72
2023-05-04T16:12:14.099Z,99367.66
2023-05-04T16:17:17.321Z,99366.25
2023-05-04T16:22:21.600Z,99358.31
2023-05-04T16:27:26.875Z,99360.28
2023-05-04T16:32:30.966Z,99358.38
2023-05-04T16:37:39.821Z,99350.69
2023-05-04T16:42:43.100Z,99357.03
2023-05-04T16:47:46.384Z,99358.63
2023-05-04T16:52:51.065Z,99353.84
2023-05-04T16:57:56.648Z,99344.78
2023-05-04T17:03:00.831Z,99346.41
2023-05-04T17:08:05.631Z,99345.88
2023-05-04T17:13:08.664Z,99352.19
2023-05-04T17:18:11.910Z,99348.97
2023-05-04T17:23:16.619Z,99354.81
2023-05-04T17:28:19.898Z,99349.41
2023-05-04T17:33:24.196Z,99355.22
2023-05-04T17:38:29.157Z,99363.31
2023-05-04T17:43:32.005Z,99357.38
2023-05-04T17:48:36.359Z,99356.88
2023-05-04T17:53:40.922Z,99362.38
2023-05-04T17:58:43.916Z,99368.69
2023-05-04T18:03:47.030Z,99373.06
2023-05-04T18:08:51.496Z,99375.19
2023-05-04T18:13:56.318Z,99388.59
2023-05-04T18:18:59.263Z,99386.34
2023-05-04T18:24:04.025Z,99379.69
2023-05-04T18:29:18.006Z,99379.47
2023-05-04T18:34:22.166Z,99379.78
2023-05-04T18:39:26.479Z,99377.53
2023-05-04T18:44:29.363Z,99374.88
2023-05-04T18:49:32.314Z,99368.66
2023-05-04T18:54:36.679Z,99378.06
2023-05-04T18:59:40.083Z,99377.94
2023-05-04T19:04:43.120Z,99381.22
2023-05-04T19:09:47.356Z,99390.00
2023-05-04T19:14:51.112Z,99386.41
2023-05-04T19:19:54.037Z,99391.97
2023-05-04T19:24:58.351Z,99390.47
2023-05-04T19:30:01.245Z,99394.66
2023-05-04T19:35:04.199Z,99400.00
2023-05-04T19:40:09.958Z,99393.94
2023-05-04T19:45:13.820Z,99379.50
2023-05-04T19:50:16.898Z,99384.44
2023-05-04T19:55:21.476Z,99384.16
2023-05-04T20:00:24.568Z,99374.50
2023-05-04T20:05:27.664Z,99366.13
2023-05-04T20:10:32.056Z,99366.06
2023-05-04T20:15:34.924Z,99367.09
2023-05-04T20:20:37.809Z,99372.28
2023-05-04T20:25:42.737Z,99360.00
2023-05-04T20:30:46.758Z,99370.59
2023-05-04T20:35:49.659Z,99368.28
2023-05-04T20:40:53.924Z,99370.09
2023-05-04T20:45:58.304Z,99369.88
2023-05-04T20:51:13.523Z,99372.13
2023-05-04T20:56:19.252Z,99372.53
2023-05-04T21:01:22.139Z,99376.47
2023-05-04T21:06:25.382Z,99376.25
2023-05-04T21:11:29.646Z,99368.72
2023-05-04T21:16:32.558Z,99373.16
2023-05-04T21:21:40.533Z,99369.06
2023-05-04T21:26:45.532Z,99361.91
2023-05-04T21:31:48.405Z,99364.34
2023-05-04T21:36:51.311Z,99355.78
2023-05-04T21:41:55.565Z,99342.50
2023-05-04T21:46:58.487Z,99346.56
2023-05-04T21:52:01.338Z,99352.50
2023-05-04T21:57:06.481Z,99345.28
2023-05-04T22:02:09.792Z,99348.53
2023-05-04T22:07:12.681Z,99352.19
2023-05-04T22:12:16.885Z,99348.25
2023-05-04T22:17:19.788Z,99353.16
2023-05-04T22:22:22.671Z,99345.09
2023-05-04T22:27:26.995Z,99349.34
2023-05-04T22:32:29.912Z,99349.16
2023-05-04T22:37:32.818Z,99342.97
2023-05-04T22:42:37.053Z,99344.97
2023-05-04T22:47:39.982Z,99348.81
2023-05-04T22:52:42.992Z,99351.44
2023-05-04T22:57:47.266Z,99361.72
2023-05-04T23:02:50.483Z,99356.69
2023-05-04T23:07:53.490Z,99357.50
2023-05-04T23:12:57.753Z,99343.81
2023-05-04T23:18:00.850Z,99340.38
2023-05-04T23:23:03.812Z,99336.72
2023-05-04T23:28:08.053Z,99343.59
2023-05-04T23:33:10.934Z,99335.94
2023-05-04T23:38:13.793Z,99338.34
2023-05-04T23:43:18.012Z,99333.50
2023-05-04T23:48:20.929Z,99331.66
2023-05-04T23:53:23.907Z,99330.25
2023-05-04T23:58:28.650Z,99325.59
